Seabulk Challenge — KNJL — position and weather

sailwx.info

Track history (hours):
 
Tides and Currents Weather Stations Pressure Air Temp Water Temp Dewpoint Dewpoint Depression Visibility Wind Speed Wind Dir Waves Ship Positions

Seabulk Challenge

Owner: Seabulk Tankers, Inc., Fort Lauderdale, FL. More information available from US FCC via Universal Licensing System and Coast Guard Vessel Documentation Center.

Last reported at 2015-May-19 16:21 UTC. Time now 2015-May-23 14:54 UTC.
Position N 24°20' W 081°55'.

Length 42 m; draft 2.5 m.

Type: Pleasure craft. MMSI: 303104000.

Date/timePositionNaut miles runAvg speedWind from/ knotsBaromVisibWave heightAir tempDewpointWater temp
2015-May-19 16:21N 24°20' W 081°55'1315.2
2015-May-19 15:28N 24°21' W 081°40'12013.4
2015-May-19 06:30N 25°37' W 079°58'1212.8
2015-May-19 05:33N 25°49' W 079°57'1312.7
2015-May-19 04:32N 26°01' W 080°02'6 6.6
2015-May-19 03:33N 26°06' W 080°07'0 0.0
2015-May-19 02:28N 26°06' W 080°07'0 0.0
2015-May-19 01:28N 26°06' W 080°07'0 0.0
2015-May-19 00:31N 26°06' W 080°07'0 0.0
2015-May-18 23:28N 26°06' W 080°07'0 0.0
2015-May-18 22:31N 26°06' W 080°07'0 0.0
2015-May-18 21:31N 26°06' W 080°07'0 0.0
2015-May-18 20:31N 26°06' W 080°07'0 0.0
2015-May-18 19:31N 26°06' W 080°07'0 0.0
2015-May-18 18:22N 26°06' W 080°07'0 0.0
2015-May-18 17:25N 26°06' W 080°07'0 0.0
2015-May-18 16:25N 26°06' W 080°07'0 0.0
2015-May-18 15:25N 26°06' W 080°07'0 0.0
2015-May-18 14:28N 26°06' W 080°07'0 0.0
2015-May-18 13:28N 26°06' W 080°07'0 0.0
2015-May-18 12:28N 26°06' W 080°07'0 0.0
2015-May-18 11:28N 26°06' W 080°07'0 0.0
2015-May-18 10:28N 26°06' W 080°07'0 0.0
2015-May-18 09:31N 26°06' W 080°07'0 0.0
2015-May-18 08:31N 26°06' W 080°07'0 0.0
2015-May-18 07:31N 26°06' W 080°07'0 0.0
2015-May-18 06:31N 26°06' W 080°07'0 0.0
2015-May-18 05:31N 26°06' W 080°07'0 0.0
2015-May-18 04:22N 26°06' W 080°07'0 0.0
2015-May-18 03:22N 26°06' W 080°07'0 0.0
2015-May-18 02:25N 26°06' W 080°07'0 0.0
2015-May-18 01:25N 26°06' W 080°07'0 0.0
2015-May-18 00:25N 26°06' W 080°07'0 0.0
2015-May-17 23:28N 26°06' W 080°07'0 0.0
2015-May-17 22:28N 26°06' W 080°07'0 0.0
2015-May-17 21:31N 26°06' W 080°07'0 0.0
2015-May-17 20:31N 26°06' W 080°07'0 0.3
2015-May-17 19:33N 26°06' W 080°07'3 2.4
2015-May-17 18:24N 26°07' W 080°04'0 0.0
2015-May-17 17:27N 26°07' W 080°04'0 0.0
2015-May-17 16:27N 26°07' W 080°04'0 0.0
2015-May-17 15:27N 26°07' W 080°04'0 0.0
2015-May-17 14:30N 26°07' W 080°04'0 0.0
2015-May-17 13:30N 26°07' W 080°04'0 0.1
2015-May-17 12:27N 26°07' W 080°04'0 0.1
2015-May-17 11:33N 26°07' W 080°04'0 0.0
2015-May-17 10:33N 26°07' W 080°04'0 0.0
2015-May-17 09:33N 26°07' W 080°04'0 0.0
2015-May-17 08:33N 26°07' W 080°04'0 0.0
2015-May-17 07:33N 26°07' W 080°04'0 0.0
2015-May-17 06:33N 26°07' W 080°04'0 0.0
2015-May-17 05:33N 26°07' W 080°04'0 0.0
2015-May-17 04:24N 26°07' W 080°04'0 0.0
2015-May-17 03:24N 26°07' W 080°04'0 0.0
2015-May-17 02:27N 26°07' W 080°04'0 0.0
2015-May-17 01:27N 26°07' W 080°04'0 0.0
2015-May-17 00:27N 26°07' W 080°04'0 0.0
2015-May-16 23:30N 26°07' W 080°04'0 0.0
2015-May-16 22:30N 26°07' W 080°04'0 0.0
2015-May-16 21:30N 26°07' W 080°04'0 0.0
2015-May-16 20:33N 26°07' W 080°04'0 0.0
2015-May-16 19:33N 26°07' W 080°04'0 0.0
2015-May-16 18:33N 26°07' W 080°04'2 1.7
2015-May-16 17:33N 26°09' W 080°04'5 4.8
2015-May-16 16:33N 26°05' W 079°60'1817.7
2015-May-16 15:33N 25°48' W 079°56'  
Track history (hours):
 
Tides and Currents Weather Stations Pressure Air Temp Water Temp Dewpoint Dewpoint Depression Visibility Wind Speed Wind Dir Waves Ship Positions

Seabulk Challenge

Owner: Seabulk Tankers, Inc., Fort Lauderdale, FL. More information available from US FCC via Universal Licensing System and Coast Guard Vessel Documentation Center.

Last reported at 2015-May-19 16:21 UTC. Time now 2015-May-23 14:55 UTC.
Position N 24°20' W 081°55'.

Length 42 m; draft 2.5 m.

Type: Pleasure craft. MMSI: 303104000.

Date/timePositionNaut miles runAvg speedWind from/ knotsBaromVisibWave heightAir tempDewpointWater temp
2015-May-19 16:21N 24°20' W 081°55'1315.2
2015-May-19 15:28N 24°21' W 081°40'12013.4
2015-May-19 06:30N 25°37' W 079°58'1212.8
2015-May-19 05:33N 25°49' W 079°57'1312.7
2015-May-19 04:32N 26°01' W 080°02'6 6.6
2015-May-19 03:33N 26°06' W 080°07'0 0.0
2015-May-19 02:28N 26°06' W 080°07'0 0.0
2015-May-19 01:28N 26°06' W 080°07'0 0.0
2015-May-19 00:31N 26°06' W 080°07'0 0.0
2015-May-18 23:28N 26°06' W 080°07'0 0.0
2015-May-18 22:31N 26°06' W 080°07'0 0.0
2015-May-18 21:31N 26°06' W 080°07'0 0.0
2015-May-18 20:31N 26°06' W 080°07'0 0.0
2015-May-18 19:31N 26°06' W 080°07'0 0.0
2015-May-18 18:22N 26°06' W 080°07'0 0.0
2015-May-18 17:25N 26°06' W 080°07'0 0.0
2015-May-18 16:25N 26°06' W 080°07'0 0.0
2015-May-18 15:25N 26°06' W 080°07'0 0.0
2015-May-18 14:28N 26°06' W 080°07'0 0.0
2015-May-18 13:28N 26°06' W 080°07'0 0.0
2015-May-18 12:28N 26°06' W 080°07'0 0.0
2015-May-18 11:28N 26°06' W 080°07'0 0.0
2015-May-18 10:28N 26°06' W 080°07'0 0.0
2015-May-18 09:31N 26°06' W 080°07'0 0.0
2015-May-18 08:31N 26°06' W 080°07'0 0.0
2015-May-18 07:31N 26°06' W 080°07'0 0.0
2015-May-18 06:31N 26°06' W 080°07'0 0.0
2015-May-18 05:31N 26°06' W 080°07'0 0.0
2015-May-18 04:22N 26°06' W 080°07'0 0.0
2015-May-18 03:22N 26°06' W 080°07'0 0.0
2015-May-18 02:25N 26°06' W 080°07'0 0.0
2015-May-18 01:25N 26°06' W 080°07'0 0.0
2015-May-18 00:25N 26°06' W 080°07'0 0.0
2015-May-17 23:28N 26°06' W 080°07'0 0.0
2015-May-17 22:28N 26°06' W 080°07'0 0.0
2015-May-17 21:31N 26°06' W 080°07'0 0.0
2015-May-17 20:31N 26°06' W 080°07'0 0.3
2015-May-17 19:33N 26°06' W 080°07'3 2.4
2015-May-17 18:24N 26°07' W 080°04'0 0.0
2015-May-17 17:27N 26°07' W 080°04'0 0.0
2015-May-17 16:27N 26°07' W 080°04'0 0.0
2015-May-17 15:27N 26°07' W 080°04'0 0.0
2015-May-17 14:30N 26°07' W 080°04'0 0.0
2015-May-17 13:30N 26°07' W 080°04'0 0.1
2015-May-17 12:27N 26°07' W 080°04'0 0.1
2015-May-17 11:33N 26°07' W 080°04'0 0.0
2015-May-17 10:33N 26°07' W 080°04'0 0.0
2015-May-17 09:33N 26°07' W 080°04'0 0.0
2015-May-17 08:33N 26°07' W 080°04'0 0.0
2015-May-17 07:33N 26°07' W 080°04'0 0.0
2015-May-17 06:33N 26°07' W 080°04'0 0.0
2015-May-17 05:33N 26°07' W 080°04'0 0.0
2015-May-17 04:24N 26°07' W 080°04'0 0.0
2015-May-17 03:24N 26°07' W 080°04'0 0.0
2015-May-17 02:27N 26°07' W 080°04'0 0.0
2015-May-17 01:27N 26°07' W 080°04'0 0.0
2015-May-17 00:27N 26°07' W 080°04'0 0.0
2015-May-16 23:30N 26°07' W 080°04'0 0.0
2015-May-16 22:30N 26°07' W 080°04'0 0.0
2015-May-16 21:30N 26°07' W 080°04'0 0.0
2015-May-16 20:33N 26°07' W 080°04'0 0.0
2015-May-16 19:33N 26°07' W 080°04'0 0.0
2015-May-16 18:33N 26°07' W 080°04'2 1.7
2015-May-16 17:33N 26°09' W 080°04'5 4.8
2015-May-16 16:33N 26°05' W 079°60'1817.7
2015-May-16 15:33N 25°48' W 079°56'  

Dump ship's entire track history